Terminal Aerodrome Forecast
Issued by NWS North Platte, NE

Home | Current Version | Previous Version | Text Only | Print | Product List | Glossary On
Versions: 1 2 3 4 5 6 7 8 9 10 11 12 13 14 15 16 17
600
FTUS43 KLBF 261046 AAB
TAFLBF
TAF AMD
KLBF 261046Z 2611/2706 VRB02KT P6SM OVC006
     FM261500 30005KT P6SM SCT010 OVC070
     FM261800 03008KT P6SM BKN090
     FM262100 07008KT P6SM BKN090
     FM270100 VRB05KT P6SM SCT090=

USA.gov is the U.S. government's official web portal to all federal, state and local government web resources and services.